createdAt,value
2018-06-13T00:01:20.323Z,14.37
2018-06-13T00:03:50.543Z,14.34
2018-06-13T00:06:21.484Z,14.40
2018-06-13T00:18:57.652Z,14.19
2018-06-13T00:21:34.924Z,13.93
2018-06-13T00:24:39.139Z,13.91
2018-06-13T00:27:08.964Z,13.95
2018-06-13T00:29:39.360Z,13.96
2018-06-13T00:32:09.651Z,13.96
2018-06-13T00:34:39.441Z,13.93
2018-06-13T00:37:09.175Z,13.96
2018-06-13T00:39:39.447Z,13.94
2018-06-13T00:42:09.392Z,13.82
2018-06-13T00:44:39.520Z,13.86
2018-06-13T00:47:09.247Z,13.91
2018-06-13T00:49:40.597Z,13.90
2018-06-13T00:52:10.390Z,13.80
2018-06-13T00:54:40.124Z,13.90
2018-06-13T00:57:10.165Z,13.71
2018-06-13T01:00:16.757Z,13.77
2018-06-13T01:02:47.300Z,13.83
2018-06-13T01:05:17.319Z,13.75
2018-06-13T01:07:47.249Z,13.70
2018-06-13T01:10:17.524Z,13.58
2018-06-13T01:15:29.856Z,13.58
2018-06-13T01:18:01.435Z,13.57
2018-06-13T01:20:40.483Z,13.61
2018-06-13T01:23:10.590Z,13.59
2018-06-13T01:25:50.006Z,13.55
2018-06-13T01:28:20.634Z,13.56
2018-06-13T01:30:50.792Z,13.45
2018-06-13T01:33:30.110Z,13.51
2018-06-13T01:36:00.783Z,13.50
2018-06-13T01:43:34.769Z,13.53
2018-06-13T01:46:17.769Z,13.36
2018-06-13T01:51:30.868Z,13.36
2018-06-13T01:54:16.184Z,13.35
2018-06-13T01:56:46.270Z,13.25
2018-06-13T01:59:16.223Z,13.23
2018-06-13T02:01:48.816Z,13.19
2018-06-13T02:04:18.753Z,13.26
2018-06-13T02:06:48.784Z,13.14
2018-06-13T02:09:18.738Z,13.08
2018-06-13T02:11:49.998Z,13.12
2018-06-13T02:14:19.944Z,12.95
2018-06-13T02:16:49.988Z,12.92
2018-06-13T02:19:24.121Z,12.91
2018-06-13T02:21:54.634Z,12.94
2018-06-13T02:24:24.504Z,12.85
2018-06-13T02:26:54.472Z,12.81
2018-06-13T02:29:24.373Z,12.80
2018-06-13T02:31:56.844Z,12.82
2018-06-13T02:34:26.824Z,12.75
2018-06-13T02:36:56.828Z,12.78
2018-06-13T02:39:26.682Z,12.71
2018-06-13T02:41:56.568Z,12.66
2018-06-13T02:44:26.484Z,12.67
2018-06-13T02:46:57.169Z,12.67
2018-06-13T02:49:27.347Z,12.69
2018-06-13T02:51:57.266Z,12.65
2018-06-13T02:54:27.118Z,12.61
2018-06-13T02:56:57.056Z,12.57
2018-06-13T02:59:26.917Z,12.74
2018-06-13T03:01:57.159Z,12.64
2018-06-13T03:04:27.072Z,12.55
2018-06-13T03:06:57.021Z,12.47
2018-06-13T03:09:26.908Z,12.51
2018-06-13T03:12:24.654Z,12.50
2018-06-13T03:14:55.149Z,12.46
2018-06-13T03:17:25.671Z,12.39
2018-06-13T03:19:57.997Z,12.43
2018-06-13T03:28:23.812Z,12.41
2018-06-13T03:30:53.746Z,12.40
2018-06-13T03:33:23.324Z,12.41
2018-06-13T03:35:54.384Z,12.43
2018-06-13T03:38:24.196Z,12.39
2018-06-13T03:40:53.879Z,12.46
2018-06-13T03:43:23.729Z,12.46
2018-06-13T03:45:53.737Z,12.39
2018-06-13T03:48:23.251Z,12.41
2018-06-13T03:50:53.612Z,12.40
2018-06-13T03:54:21.563Z,12.43
2018-06-13T03:56:51.161Z,12.48
2018-06-13T03:59:21.670Z,12.56
2018-06-13T04:01:51.331Z,12.56
2018-06-13T04:04:21.477Z,12.60
2018-06-13T04:06:51.051Z,12.65
2018-06-13T04:09:22.814Z,12.72
2018-06-13T04:11:52.463Z,12.72
2018-06-13T04:14:21.941Z,12.70
2018-06-13T04:16:51.435Z,12.67
2018-06-13T04:19:22.269Z,12.73
2018-06-13T04:21:52.125Z,12.79
2018-06-13T04:24:21.528Z,12.82
2018-06-13T04:26:56.616Z,12.82
2018-06-13T04:29:28.923Z,12.86
2018-06-13T05:24:36.013Z,13.01
2018-06-13T05:27:07.080Z,13.03
2018-06-13T05:29:36.824Z,13.02
2018-06-13T05:32:06.499Z,13.02
2018-06-13T05:34:37.378Z,13.01
2018-06-13T05:37:25.643Z,13.13
2018-06-13T05:39:55.920Z,13.08
2018-06-13T05:42:25.430Z,13.09
2018-06-13T05:45:01.292Z,13.15
2018-06-13T05:47:31.007Z,13.18
2018-06-13T05:50:00.426Z,13.17
2018-06-13T05:52:30.204Z,13.12
2018-06-13T05:55:00.591Z,13.11
2018-06-13T05:57:30.006Z,13.22
2018-06-13T05:59:59.656Z,13.24
2018-06-13T06:02:29.054Z,13.26
2018-06-13T06:04:58.495Z,13.23
2018-06-13T06:07:27.863Z,13.27
2018-06-13T06:09:57.797Z,13.28
2018-06-13T06:12:27.237Z,13.36
2018-06-13T06:14:59.626Z,13.47
2018-06-13T06:17:29.466Z,13.59
2018-06-13T06:19:59.076Z,13.62
2018-06-13T06:22:28.477Z,13.70
2018-06-13T06:24:57.961Z,13.71
2018-06-13T06:27:32.611Z,13.73
2018-06-13T06:30:02.026Z,13.71
2018-06-13T06:32:31.408Z,13.72
2018-06-13T06:35:01.325Z,13.75
2018-06-13T06:37:30.793Z,13.74
2018-06-13T06:40:00.344Z,13.71
2018-06-13T06:42:29.821Z,13.74
2018-06-13T06:44:59.522Z,13.75
2018-06-13T06:47:28.953Z,13.79
2018-06-13T06:49:58.416Z,13.88
2018-06-13T06:52:27.865Z,13.93
2018-06-13T06:54:57.740Z,14.00
2018-06-13T06:57:27.324Z,14.04
2018-06-13T06:59:56.962Z,14.15
2018-06-13T07:02:26.557Z,14.29
2018-06-13T07:04:56.141Z,14.32
2018-06-13T07:07:25.616Z,14.37
2018-06-13T07:09:56.385Z,14.48
2018-06-13T07:12:26.053Z,14.58
2018-06-13T07:14:55.942Z,14.72
2018-06-13T07:17:25.668Z,14.72
2018-06-13T07:19:55.095Z,14.78
2018-06-13T07:22:24.487Z,14.92
2018-06-13T07:24:53.893Z,14.98
2018-06-13T07:27:23.629Z,15.11
2018-06-13T07:29:53.076Z,15.04
2018-06-13T07:32:22.770Z,15.17
2018-06-13T07:34:52.216Z,15.23
2018-06-13T07:37:21.709Z,15.40
2018-06-13T07:39:51.135Z,15.47
2018-06-13T07:42:22.003Z,15.33
2018-06-13T07:44:51.415Z,15.37
2018-06-13T07:47:20.824Z,15.54
2018-06-13T07:49:50.227Z,15.66
2018-06-13T07:52:23.492Z,15.71
2018-06-13T07:54:52.977Z,15.69
2018-06-13T07:57:22.421Z,15.72
2018-06-13T07:59:51.824Z,15.72
2018-06-13T08:02:21.676Z,15.55
2018-06-13T08:04:51.045Z,15.57
2018-06-13T08:07:20.458Z,15.55
2018-06-13T08:09:49.903Z,15.37
2018-06-13T08:12:20.186Z,15.21
2018-06-13T08:14:49.605Z,15.13
2018-06-13T08:17:19.139Z,15.08
2018-06-13T08:19:48.685Z,15.25
2018-06-13T08:22:18.452Z,15.45
2018-06-13T08:24:55.204Z,15.30
2018-06-13T08:27:24.674Z,15.00
2018-06-13T08:29:54.367Z,15.00
2018-06-13T08:32:24.453Z,14.97
2018-06-13T08:34:53.838Z,14.81
2018-06-13T08:37:24.582Z,14.80
2018-06-13T08:39:54.109Z,14.87
2018-06-13T08:42:23.628Z,14.85
2018-06-13T08:44:52.960Z,15.09
2018-06-13T08:47:23.275Z,15.29
2018-06-13T08:49:52.688Z,15.65
2018-06-13T08:52:22.187Z,15.79
2018-06-13T08:54:51.561Z,15.67
2018-06-13T08:57:21.300Z,15.85
2018-06-13T08:59:50.949Z,15.79
2018-06-13T09:02:20.393Z,15.66
2018-06-13T09:04:50.294Z,15.56
2018-06-13T09:07:19.701Z,15.54
2018-06-13T09:09:49.095Z,15.59
2018-06-13T09:12:19.005Z,15.70
2018-06-13T09:14:48.456Z,15.73
2018-06-13T09:17:18.299Z,15.73
2018-06-13T09:19:47.709Z,16.04
2018-06-13T09:22:17.405Z,16.29
2018-06-13T09:24:47.064Z,16.50
2018-06-13T09:27:16.505Z,16.37
2018-06-13T09:29:45.963Z,16.18
2018-06-13T09:32:15.431Z,15.76
2018-06-13T09:34:44.785Z,15.54
2018-06-13T09:37:14.514Z,15.33
2018-06-13T09:39:43.962Z,15.25
2018-06-13T09:42:13.357Z,15.30
2018-06-13T09:44:42.766Z,15.22
2018-06-13T09:47:15.130Z,15.27
2018-06-13T09:49:42.244Z,15.27
2018-06-13T09:52:11.899Z,15.32
2018-06-13T09:54:41.287Z,15.42
2018-06-13T09:57:10.669Z,15.49
2018-06-13T09:59:45.612Z,15.73
2018-06-13T10:02:18.534Z,15.88
2018-06-13T10:04:48.648Z,15.82
2018-06-13T10:07:20.352Z,15.89
2018-06-13T10:09:50.032Z,16.04
2018-06-13T10:12:19.615Z,16.19
2018-06-13T10:14:49.176Z,16.24
2018-06-13T10:17:18.638Z,16.16
2018-06-13T10:19:48.296Z,16.12
2018-06-13T10:22:17.824Z,16.31
2018-06-13T10:24:47.200Z,16.42
2018-06-13T10:27:22.106Z,16.63
2018-06-13T10:29:51.451Z,16.61
2018-06-13T10:32:20.820Z,16.42
2018-06-13T10:34:50.492Z,16.66
2018-06-13T10:37:19.933Z,16.54
2018-06-13T10:39:49.388Z,16.59
2018-06-13T10:42:19.208Z,16.50
2018-06-13T10:44:48.799Z,16.59
2018-06-13T10:47:18.311Z,16.57
2018-06-13T10:49:47.971Z,16.68
2018-06-13T10:52:17.375Z,16.67
2018-06-13T10:54:46.718Z,16.62
2018-06-13T10:57:16.415Z,16.98
2018-06-13T10:59:45.843Z,16.99
2018-06-13T11:02:15.294Z,17.30
2018-06-13T11:04:45.122Z,17.32
2018-06-13T11:07:14.516Z,17.52
2018-06-13T11:09:43.942Z,17.45
2018-06-13T11:12:13.860Z,17.62
2018-06-13T11:14:43.230Z,17.72
2018-06-13T11:17:12.635Z,17.44
2018-06-13T11:19:42.294Z,17.43
2018-06-13T11:22:11.687Z,17.26
2018-06-13T11:24:41.343Z,17.10
2018-06-13T11:27:11.269Z,17.29
2018-06-13T11:29:40.676Z,17.45
2018-06-13T11:32:10.043Z,17.53
2018-06-13T11:34:41.897Z,17.49
2018-06-13T11:37:11.266Z,17.50
2018-06-13T11:39:40.653Z,17.36
2018-06-13T11:42:10.353Z,17.48
2018-06-13T11:44:39.702Z,17.69
2018-06-13T11:47:09.272Z,17.89
2018-06-13T11:49:38.708Z,18.14
2018-06-13T11:52:08.443Z,18.07
2018-06-13T11:54:37.984Z,18.22
2018-06-13T11:57:07.724Z,17.98
2018-06-13T11:59:37.447Z,18.41
2018-06-13T12:02:07.497Z,18.44
2018-06-13T12:04:37.026Z,18.37
2018-06-13T12:07:06.589Z,18.28
2018-06-13T12:09:36.639Z,18.41
2018-06-13T12:12:06.377Z,18.00
2018-06-13T12:14:35.992Z,18.18
2018-06-13T12:17:07.306Z,17.81
2018-06-13T12:19:36.785Z,17.92
2018-06-13T12:22:06.569Z,18.13
2018-06-13T12:24:37.761Z,18.08
2018-06-13T12:27:07.504Z,17.68
2018-06-13T12:29:36.936Z,17.14
2018-06-13T12:32:11.429Z,16.67
2018-06-13T12:34:40.934Z,16.33
2018-06-13T12:37:10.295Z,16.06
2018-06-13T12:39:42.293Z,15.96
2018-06-13T12:42:11.701Z,15.81
2018-06-13T12:44:41.128Z,15.75
2018-06-13T12:47:10.941Z,15.59
2018-06-13T12:49:40.447Z,15.59
2018-06-13T12:52:09.901Z,15.46
2018-06-13T12:54:39.645Z,15.46
2018-06-13T12:57:09.058Z,15.54
2018-06-13T12:59:38.448Z,15.46
2018-06-13T13:02:08.305Z,15.58
2018-06-13T13:04:37.799Z,15.72
2018-06-13T13:07:07.351Z,15.83
2018-06-13T13:09:37.148Z,15.83
2018-06-13T13:12:06.776Z,15.90
2018-06-13T13:14:37.208Z,16.09
2018-06-13T13:17:08.176Z,16.24
2018-06-13T13:19:37.869Z,16.41
2018-06-13T13:22:07.773Z,16.48
2018-06-13T13:24:37.518Z,16.63
2018-06-13T13:27:07.089Z,16.88
2018-06-13T13:29:36.661Z,16.99
2018-06-13T13:32:06.502Z,17.28
2018-06-13T13:34:37.121Z,17.33
2018-06-13T13:37:07.196Z,17.43
2018-06-13T13:39:39.264Z,17.64
2018-06-13T13:42:08.900Z,18.10
2018-06-13T13:44:38.448Z,18.54
2018-06-13T13:47:10.322Z,19.26
2018-06-13T13:49:39.694Z,19.72
2018-06-13T13:52:09.276Z,19.63
2018-06-13T13:54:39.131Z,19.37
2018-06-13T13:57:08.600Z,19.06
2018-06-13T13:59:38.025Z,18.80
2018-06-13T14:02:08.265Z,18.21
2018-06-13T14:04:37.720Z,17.51
2018-06-13T14:07:07.247Z,16.96
2018-06-13T14:09:38.438Z,16.73
2018-06-13T14:12:08.117Z,16.50
2018-06-13T14:14:37.612Z,16.49
2018-06-13T14:17:08.543Z,16.48
2018-06-13T14:19:37.971Z,16.53
2018-06-13T14:22:07.590Z,16.47
2018-06-13T14:24:37.270Z,16.45
2018-06-13T14:27:06.776Z,16.51
2018-06-13T14:29:46.698Z,16.53
2018-06-13T14:32:16.670Z,16.43
2018-06-13T14:34:46.095Z,16.53
2018-06-13T14:37:15.780Z,16.84
2018-06-13T14:39:46.327Z,17.08
2018-06-13T14:42:15.932Z,17.29
2018-06-13T14:44:45.472Z,17.37
2018-06-13T14:47:15.119Z,17.50
2018-06-13T14:49:44.459Z,17.52
2018-06-13T14:52:13.868Z,17.56
2018-06-13T14:54:43.643Z,17.83
2018-06-13T14:57:13.048Z,17.74
2018-06-13T14:59:42.661Z,18.08
2018-06-13T15:02:13.245Z,18.35
2018-06-13T15:04:45.189Z,18.27
2018-06-13T15:07:14.572Z,18.33
2018-06-13T15:09:45.338Z,18.31
2018-06-13T15:12:14.771Z,18.25
2018-06-13T15:14:44.208Z,18.12
2018-06-13T15:17:13.923Z,17.99
2018-06-13T15:19:43.549Z,17.67
2018-06-13T15:22:13.585Z,17.37
2018-06-13T15:24:43.032Z,17.36
2018-06-13T15:27:12.954Z,17.01
2018-06-13T15:29:42.612Z,16.88
2018-06-13T15:32:12.796Z,16.71
2018-06-13T15:34:42.456Z,16.70
2018-06-13T15:37:12.067Z,16.65
2018-06-13T15:39:43.820Z,16.66
2018-06-13T15:42:13.258Z,16.77
2018-06-13T15:44:42.760Z,16.76
2018-06-13T15:47:13.132Z,16.71
2018-06-13T15:49:42.652Z,16.70
2018-06-13T15:52:12.193Z,16.87
2018-06-13T15:54:41.675Z,17.12
2018-06-13T15:57:11.460Z,17.35
2018-06-13T15:59:40.929Z,17.24
2018-06-13T16:02:11.048Z,17.27
2018-06-13T16:04:40.488Z,17.12
2018-06-13T16:07:10.104Z,17.07
2018-06-13T16:09:40.220Z,17.08
2018-06-13T16:12:09.757Z,16.87
2018-06-13T16:14:39.218Z,16.83
2018-06-13T16:17:08.921Z,16.88
2018-06-13T16:19:39.658Z,16.82
2018-06-13T16:22:09.250Z,16.85
2018-06-13T16:24:38.895Z,16.98
2018-06-13T16:27:08.507Z,16.96
2018-06-13T16:29:37.920Z,17.00
2018-06-13T16:32:08.250Z,16.97
2018-06-13T16:34:38.199Z,17.01
2018-06-13T16:37:08.588Z,16.88
2018-06-13T16:39:39.647Z,16.84
2018-06-13T16:42:14.777Z,16.83
2018-06-13T16:44:44.487Z,16.76
2018-06-13T16:47:14.184Z,16.80
2018-06-13T16:49:44.061Z,16.93
2018-06-13T16:52:25.710Z,16.69
2018-06-13T16:55:03.489Z,16.68
2018-06-13T16:57:33.248Z,16.69
2018-06-13T17:00:03.518Z,16.67
2018-06-13T17:02:34.786Z,16.54
2018-06-13T17:05:05.912Z,16.58
2018-06-13T17:07:39.299Z,16.51
2018-06-13T17:10:09.729Z,16.48
2018-06-13T17:12:41.132Z,16.45
2018-06-13T17:15:12.484Z,16.48
2018-06-13T17:17:42.394Z,16.34
2018-06-13T17:20:13.546Z,16.34
2018-06-13T17:22:43.033Z,16.30
2018-06-13T17:25:13.011Z,16.19
2018-06-13T17:27:43.562Z,16.18
2018-06-13T17:30:13.111Z,16.09
2018-06-13T17:32:43.232Z,16.24
2018-06-13T17:35:14.408Z,16.03
2018-06-13T17:37:43.965Z,16.01
2018-06-13T17:40:13.838Z,16.04
2018-06-13T17:42:44.498Z,16.07
2018-06-13T17:45:20.486Z,16.02
2018-06-13T17:47:50.582Z,15.91
2018-06-13T17:50:21.852Z,15.94
2018-06-13T17:52:52.449Z,15.88
2018-06-13T17:55:28.401Z,15.85
2018-06-13T17:57:58.305Z,15.80
2018-06-13T18:00:27.899Z,15.80
2018-06-13T18:02:57.660Z,15.69
2018-06-13T18:05:28.041Z,15.76
2018-06-13T18:07:58.180Z,15.71
2018-06-13T18:10:30.738Z,15.62
2018-06-13T18:13:00.211Z,15.73
2018-06-13T18:15:30.947Z,15.73
2018-06-13T18:18:01.500Z,15.67
2018-06-13T18:20:34.290Z,15.62
2018-06-13T18:23:04.436Z,15.48
2018-06-13T18:25:33.878Z,15.49
2018-06-13T18:28:03.889Z,15.51
2018-06-13T18:30:33.948Z,15.42
2018-06-13T18:33:03.509Z,15.40
2018-06-13T18:35:33.020Z,15.42
2018-06-13T18:38:03.037Z,15.36
2018-06-13T18:40:32.711Z,15.36
2018-06-13T18:43:02.389Z,15.39
2018-06-13T18:45:32.067Z,15.34
2018-06-13T18:48:01.661Z,15.31
2018-06-13T18:50:31.144Z,15.30
2018-06-13T18:53:00.945Z,15.34
2018-06-13T18:55:30.899Z,15.19
2018-06-13T18:58:00.418Z,15.07
2018-06-13T19:00:30.607Z,15.08
2018-06-13T19:03:00.188Z,15.06
2018-06-13T19:05:30.309Z,15.06
2018-06-13T19:08:00.150Z,15.07
2018-06-13T19:10:30.045Z,15.00
2018-06-13T19:12:59.492Z,14.94
2018-06-13T19:15:29.187Z,14.97
2018-06-13T19:17:59.260Z,14.93
2018-06-13T19:20:29.411Z,14.96
2018-06-13T19:23:00.706Z,14.86
2018-06-13T19:25:30.401Z,14.85
2018-06-13T19:27:59.974Z,14.88
2018-06-13T19:30:30.043Z,14.90
2018-06-13T19:32:59.668Z,14.88
2018-06-13T19:35:29.413Z,14.81
2018-06-13T19:37:59.433Z,14.79
2018-06-13T19:40:28.884Z,14.80
2018-06-13T19:42:58.321Z,14.76
2018-06-13T19:45:28.344Z,14.78
2018-06-13T19:48:03.213Z,14.73
2018-06-13T19:50:32.664Z,14.69
2018-06-13T19:53:07.471Z,14.69
2018-06-13T19:55:42.312Z,14.64
2018-06-13T19:58:12.115Z,14.58
2018-06-13T20:00:41.681Z,14.63
2018-06-13T20:03:16.450Z,14.63
2018-06-13T20:05:46.255Z,14.65
2018-06-13T20:08:15.641Z,14.75
2018-06-13T20:10:45.034Z,14.71
2018-06-13T20:13:19.932Z,14.64
2018-06-13T20:15:54.453Z,14.59
2018-06-13T20:18:29.220Z,14.56
2018-06-13T20:20:58.622Z,14.60
2018-06-13T20:23:28.066Z,14.59
2018-06-13T20:26:02.908Z,14.58
2018-06-13T20:28:37.707Z,14.56
2018-06-13T20:31:12.509Z,14.60
2018-06-13T20:33:42.055Z,14.54
2018-06-13T20:36:11.699Z,14.60
2018-06-13T20:38:41.726Z,14.53
2018-06-13T20:41:11.128Z,14.50
2018-06-13T20:43:42.385Z,14.45
2018-06-13T20:46:12.034Z,14.47
2018-06-13T20:48:41.457Z,14.44
2018-06-13T20:51:11.432Z,14.46
2018-06-13T20:53:40.776Z,14.47
2018-06-13T20:56:10.227Z,14.55
2018-06-13T20:58:39.926Z,14.52
2018-06-13T21:01:09.597Z,14.47
2018-06-13T21:03:39.295Z,14.39
2018-06-13T21:06:10.505Z,14.39
2018-06-13T21:08:40.141Z,14.32
2018-06-13T21:11:09.735Z,14.28
2018-06-13T21:13:41.555Z,14.32
2018-06-13T21:16:11.724Z,14.28
2018-06-13T21:24:46.183Z,14.26
2018-06-13T21:27:15.926Z,14.34
2018-06-13T21:29:45.330Z,14.35
2018-06-13T21:32:14.808Z,14.38
2018-06-13T21:34:44.329Z,14.32
2018-06-13T21:37:13.949Z,14.18
2018-06-13T21:39:43.392Z,14.17
2018-06-13T21:42:13.163Z,14.11
2018-06-13T21:44:44.484Z,14.11
2018-06-13T21:47:14.046Z,14.05
2018-06-13T21:49:44.280Z,14.02
2018-06-13T21:52:13.963Z,13.98
2018-06-13T21:54:43.381Z,13.95
2018-06-13T21:57:13.048Z,13.94
2018-06-13T21:59:43.903Z,13.94
2018-06-13T22:02:13.283Z,13.96
2018-06-13T22:04:42.730Z,13.97
2018-06-13T22:07:12.547Z,13.99
2018-06-13T22:09:42.004Z,13.96
2018-06-13T22:12:11.473Z,13.92
2018-06-13T22:14:42.574Z,13.87
2018-06-13T22:17:13.535Z,13.93
2018-06-13T22:19:43.041Z,13.97
2018-06-13T22:22:12.748Z,13.86
2018-06-13T22:24:42.109Z,13.83
2018-06-13T22:27:11.870Z,13.89
2018-06-13T22:29:41.550Z,13.84
2018-06-13T22:32:11.178Z,13.80
2018-06-13T22:34:40.564Z,13.74
2018-06-13T22:37:10.184Z,13.74
2018-06-13T22:39:39.598Z,13.71
2018-06-13T22:42:09.284Z,13.67
2018-06-13T22:44:38.995Z,13.61
2018-06-13T22:47:08.443Z,13.57
2018-06-13T22:49:37.954Z,13.54
2018-06-13T22:55:02.381Z,13.56
2018-06-13T22:57:32.454Z,13.57
2018-06-13T23:00:02.291Z,13.51
2018-06-13T23:02:32.258Z,13.54
2018-06-13T23:05:02.471Z,13.59
2018-06-13T23:07:33.156Z,13.54
2018-06-13T23:10:02.848Z,13.59
2018-06-13T23:12:32.510Z,13.58
2018-06-13T23:15:02.387Z,13.37
2018-06-13T23:17:34.527Z,13.56
2018-06-13T23:20:05.132Z,13.56
2018-06-13T23:22:34.772Z,13.60
2018-06-13T23:25:05.208Z,13.62
2018-06-13T23:27:34.872Z,13.60
2018-06-13T23:30:04.668Z,13.60
2018-06-13T23:32:34.493Z,13.60
2018-06-13T23:35:08.130Z,13.57
2018-06-13T23:37:37.828Z,13.51
2018-06-13T23:40:11.345Z,13.56
2018-06-13T23:42:42.366Z,13.55
2018-06-13T23:45:13.285Z,13.69
2018-06-13T23:47:44.193Z,13.70
2018-06-13T23:50:14.908Z,13.56
2018-06-13T23:52:45.028Z,13.51
2018-06-13T23:55:16.825Z,13.48
2018-06-13T23:57:47.029Z,13.53
